sensor_id;sensor_type;location;lat;lon;timestamp;temperature;humidity
21149;DHT22;10732;51.472;6.466;2023-06-10T00:01:29;20.70;99.90
21149;DHT22;10732;51.472;6.466;2023-06-10T00:03:55;20.60;99.90
21149;DHT22;10732;51.472;6.466;2023-06-10T00:06:21;20.60;99.90
21149;DHT22;10732;51.472;6.466;2023-06-10T00:08:50;20.60;99.90
21149;DHT22;10732;51.472;6.466;2023-06-10T00:11:15;20.50;99.90
21149;DHT22;10732;51.472;6.466;2023-06-10T00:13:41;20.40;99.90
21149;DHT22;10732;51.472;6.466;2023-06-10T00:16:06;20.40;99.90
21149;DHT22;10732;51.472;6.466;2023-06-10T00:18:32;20.30;99.90
21149;DHT22;10732;51.472;6.466;2023-06-10T00:20:58;20.20;99.90
21149;DHT22;10732;51.472;6.466;2023-06-10T00:23:28;20.20;99.90
21149;DHT22;10732;51.472;6.466;2023-06-10T00:25:59;20.20;99.90
21149;DHT22;10732;51.472;6.466;2023-06-10T00:28:25;20.10;99.90
21149;DHT22;10732;51.472;6.466;2023-06-10T00:30:51;20.10;99.90
21149;DHT22;10732;51.472;6.466;2023-06-10T00:33:16;20.00;99.90
21149;DHT22;10732;51.472;6.466;2023-06-10T00:35:42;20.00;99.90
21149;DHT22;10732;51.472;6.466;2023-06-10T00:38:07;19.90;99.90
21149;DHT22;10732;51.472;6.466;2023-06-10T00:40:38;19.90;99.90
21149;DHT22;10732;51.472;6.466;2023-06-10T00:43:04;19.90;99.90
21149;DHT22;10732;51.472;6.466;2023-06-10T00:45:30;19.80;99.90
21149;DHT22;10732;51.472;6.466;2023-06-10T00:47:55;19.80;99.90
21149;DHT22;10732;51.472;6.466;2023-06-10T00:50:21;19.70;99.90
21149;DHT22;10732;51.472;6.466;2023-06-10T00:52:47;19.70;99.90
21149;DHT22;10732;51.472;6.466;2023-06-10T00:55:15;19.60;99.90
21149;DHT22;10732;51.472;6.466;2023-06-10T00:57:41;19.60;99.90
21149;DHT22;10732;51.472;6.466;2023-06-10T01:00:10;19.60;99.90
21149;DHT22;10732;51.472;6.466;2023-06-10T01:02:36;19.50;99.90
21149;DHT22;10732;51.472;6.466;2023-06-10T01:05:02;19.50;99.90
21149;DHT22;10732;51.472;6.466;2023-06-10T01:07:34;19.50;99.90
21149;DHT22;10732;51.472;6.466;2023-06-10T01:10:11;19.50;99.90
21149;DHT22;10732;51.472;6.466;2023-06-10T01:12:49;19.50;99.90
21149;DHT22;10732;51.472;6.466;2023-06-10T01:15:16;19.40;99.90
21149;DHT22;10732;51.472;6.466;2023-06-10T01:17:55;19.40;99.90
21149;DHT22;10732;51.472;6.466;2023-06-10T01:20:20;19.50;99.90
21149;DHT22;10732;51.472;6.466;2023-06-10T01:22:46;19.40;99.90
21149;DHT22;10732;51.472;6.466;2023-06-10T01:25:13;19.50;99.90
21149;DHT22;10732;51.472;6.466;2023-06-10T01:27:40;19.40;99.90
21149;DHT22;10732;51.472;6.466;2023-06-10T01:30:17;19.40;99.90
21149;DHT22;10732;51.472;6.466;2023-06-10T01:32:47;19.30;99.90
21149;DHT22;10732;51.472;6.466;2023-06-10T01:35:14;19.30;99.90
21149;DHT22;10732;51.472;6.466;2023-06-10T01:37:40;19.20;99.90
21149;DHT22;10732;51.472;6.466;2023-06-10T01:40:08;19.20;99.90
21149;DHT22;10732;51.472;6.466;2023-06-10T01:42:34;19.10;99.90
21149;DHT22;10732;51.472;6.466;2023-06-10T01:45:00;19.10;99.90
21149;DHT22;10732;51.472;6.466;2023-06-10T01:47:26;19.10;99.90
21149;DHT22;10732;51.472;6.466;2023-06-10T01:49:52;19.10;99.90
21149;DHT22;10732;51.472;6.466;2023-06-10T01:52:18;19.10;99.90
21149;DHT22;10732;51.472;6.466;2023-06-10T01:54:43;19.00;99.90
21149;DHT22;10732;51.472;6.466;2023-06-10T01:57:10;18.90;99.90
21149;DHT22;10732;51.472;6.466;2023-06-10T01:59:35;18.90;99.90
21149;DHT22;10732;51.472;6.466;2023-06-10T02:02:03;18.90;99.90
21149;DHT22;10732;51.472;6.466;2023-06-10T02:04:28;18.90;99.90
21149;DHT22;10732;51.472;6.466;2023-06-10T02:06:54;18.90;99.90
21149;DHT22;10732;51.472;6.466;2023-06-10T02:09:21;18.80;99.90
21149;DHT22;10732;51.472;6.466;2023-06-10T02:11:46;18.80;99.90
21149;DHT22;10732;51.472;6.466;2023-06-10T02:14:12;18.80;99.90
21149;DHT22;10732;51.472;6.466;2023-06-10T02:16:37;18.70;99.90
21149;DHT22;10732;51.472;6.466;2023-06-10T02:19:03;18.70;99.90
21149;DHT22;10732;51.472;6.466;2023-06-10T02:21:31;18.70;99.90
21149;DHT22;10732;51.472;6.466;2023-06-10T02:23:57;18.70;99.90
21149;DHT22;10732;51.472;6.466;2023-06-10T02:26:23;18.60;99.90
21149;DHT22;10732;51.472;6.466;2023-06-10T02:28:54;18.60;99.90
21149;DHT22;10732;51.472;6.466;2023-06-10T02:31:20;18.60;99.90
21149;DHT22;10732;51.472;6.466;2023-06-10T02:33:46;18.60;99.90
21149;DHT22;10732;51.472;6.466;2023-06-10T02:36:12;18.50;99.90
21149;DHT22;10732;51.472;6.466;2023-06-10T02:38:41;18.50;99.90
21149;DHT22;10732;51.472;6.466;2023-06-10T02:41:06;18.50;99.90
21149;DHT22;10732;51.472;6.466;2023-06-10T02:43:32;18.40;99.90
21149;DHT22;10732;51.472;6.466;2023-06-10T02:45:58;18.30;99.90
21149;DHT22;10732;51.472;6.466;2023-06-10T02:48:24;18.30;99.90
21149;DHT22;10732;51.472;6.466;2023-06-10T02:50:49;18.30;99.90
21149;DHT22;10732;51.472;6.466;2023-06-10T02:53:15;18.40;99.90
21149;DHT22;10732;51.472;6.466;2023-06-10T02:55:40;18.30;99.90
21149;DHT22;10732;51.472;6.466;2023-06-10T02:58:06;18.20;99.90
21149;DHT22;10732;51.472;6.466;2023-06-10T03:00:32;18.20;99.90
21149;DHT22;10732;51.472;6.466;2023-06-10T03:02:58;18.10;99.90
21149;DHT22;10732;51.472;6.466;2023-06-10T03:05:29;18.10;99.90
21149;DHT22;10732;51.472;6.466;2023-06-10T03:07:54;18.00;99.90
21149;DHT22;10732;51.472;6.466;2023-06-10T03:10:20;18.00;99.90
21149;DHT22;10732;51.472;6.466;2023-06-10T03:12:45;18.00;99.90
21149;DHT22;10732;51.472;6.466;2023-06-10T03:15:11;18.00;99.90
21149;DHT22;10732;51.472;6.466;2023-06-10T03:17:36;18.00;99.90
21149;DHT22;10732;51.472;6.466;2023-06-10T03:20:02;17.90;99.90
21149;DHT22;10732;51.472;6.466;2023-06-10T03:22:31;17.80;99.90
21149;DHT22;10732;51.472;6.466;2023-06-10T03:24:56;17.80;99.90
21149;DHT22;10732;51.472;6.466;2023-06-10T03:27:23;17.80;99.90
21149;DHT22;10732;51.472;6.466;2023-06-10T03:29:48;17.80;99.90
21149;DHT22;10732;51.472;6.466;2023-06-10T03:32:14;17.80;99.90
21149;DHT22;10732;51.472;6.466;2023-06-10T03:34:40;17.90;99.90
21149;DHT22;10732;51.472;6.466;2023-06-10T03:37:06;17.90;99.90
21149;DHT22;10732;51.472;6.466;2023-06-10T03:39:32;17.80;99.90
21149;DHT22;10732;51.472;6.466;2023-06-10T03:41:57;17.80;99.90
21149;DHT22;10732;51.472;6.466;2023-06-10T03:44:24;17.80;99.90
21149;DHT22;10732;51.472;6.466;2023-06-10T03:46:51;17.70;99.90
21149;DHT22;10732;51.472;6.466;2023-06-10T03:49:17;17.60;99.90
21149;DHT22;10732;51.472;6.466;2023-06-10T03:51:43;17.60;99.90
21149;DHT22;10732;51.472;6.466;2023-06-10T03:54:10;17.70;99.90
21149;DHT22;10732;51.472;6.466;2023-06-10T03:56:35;17.70;99.90
21149;DHT22;10732;51.472;6.466;2023-06-10T03:59:01;17.70;99.90
21149;DHT22;10732;51.472;6.466;2023-06-10T04:01:27;17.80;99.90
21149;DHT22;10732;51.472;6.466;2023-06-10T04:03:53;17.90;99.90
21149;DHT22;10732;51.472;6.466;2023-06-10T04:06:19;17.90;99.90
21149;DHT22;10732;51.472;6.466;2023-06-10T04:08:45;18.00;99.90
21149;DHT22;10732;51.472;6.466;2023-06-10T04:11:10;18.10;99.90
21149;DHT22;10732;51.472;6.466;2023-06-10T04:13:36;18.10;99.90
21149;DHT22;10732;51.472;6.466;2023-06-10T04:16:02;18.10;99.90
21149;DHT22;10732;51.472;6.466;2023-06-10T04:18:28;18.10;99.90
21149;DHT22;10732;51.472;6.466;2023-06-10T04:20:54;18.10;99.90
21149;DHT22;10732;51.472;6.466;2023-06-10T04:23:19;18.20;99.90
21149;DHT22;10732;51.472;6.466;2023-06-10T04:25:45;18.30;99.90
21149;DHT22;10732;51.472;6.466;2023-06-10T04:28:10;18.30;99.90
21149;DHT22;10732;51.472;6.466;2023-06-10T04:30:36;18.30;99.90
21149;DHT22;10732;51.472;6.466;2023-06-10T04:33:01;18.30;99.90
21149;DHT22;10732;51.472;6.466;2023-06-10T04:35:27;18.60;99.90
21149;DHT22;10732;51.472;6.466;2023-06-10T04:37:53;18.60;99.90
21149;DHT22;10732;51.472;6.466;2023-06-10T04:40:19;18.80;99.90
21149;DHT22;10732;51.472;6.466;2023-06-10T04:42:44;18.90;99.90
21149;DHT22;10732;51.472;6.466;2023-06-10T04:45:10;19.00;99.90
21149;DHT22;10732;51.472;6.466;2023-06-10T04:47:36;19.10;99.90
21149;DHT22;10732;51.472;6.466;2023-06-10T04:50:02;19.20;99.90
21149;DHT22;10732;51.472;6.466;2023-06-10T04:52:28;19.50;99.90
21149;DHT22;10732;51.472;6.466;2023-06-10T04:54:54;20.20;99.90
21149;DHT22;10732;51.472;6.466;2023-06-10T04:57:20;21.00;99.90
21149;DHT22;10732;51.472;6.466;2023-06-10T04:59:47;21.80;99.90
21149;DHT22;10732;51.472;6.466;2023-06-10T05:02:12;22.30;99.90
21149;DHT22;10732;51.472;6.466;2023-06-10T05:04:38;23.00;99.90
21149;DHT22;10732;51.472;6.466;2023-06-10T05:07:04;22.80;99.90
21149;DHT22;10732;51.472;6.466;2023-06-10T05:09:30;23.30;88.00
21149;DHT22;10732;51.472;6.466;2023-06-10T05:11:55;23.80;99.90
21149;DHT22;10732;51.472;6.466;2023-06-10T05:14:21;24.10;98.40
21149;DHT22;10732;51.472;6.466;2023-06-10T05:16:48;24.30;99.90
21149;DHT22;10732;51.472;6.466;2023-06-10T05:19:13;24.70;99.90
21149;DHT22;10732;51.472;6.466;2023-06-10T05:21:39;24.40;99.90
21149;DHT22;10732;51.472;6.466;2023-06-10T05:24:04;24.40;99.90
21149;DHT22;10732;51.472;6.466;2023-06-10T05:26:30;24.30;21.80
21149;DHT22;10732;51.472;6.466;2023-06-10T05:28:58;25.30;99.90
21149;DHT22;10732;51.472;6.466;2023-06-10T05:31:24;25.20;99.90
21149;DHT22;10732;51.472;6.466;2023-06-10T05:33:49;25.40;99.90
21149;DHT22;10732;51.472;6.466;2023-06-10T05:36:15;25.20;99.90
21149;DHT22;10732;51.472;6.466;2023-06-10T05:38:40;25.60;99.90
21149;DHT22;10732;51.472;6.466;2023-06-10T05:41:06;25.40;99.90
21149;DHT22;10732;51.472;6.466;2023-06-10T05:43:31;25.80;99.90
21149;DHT22;10732;51.472;6.466;2023-06-10T05:45:57;26.40;99.90
21149;DHT22;10732;51.472;6.466;2023-06-10T05:48:22;25.70;99.90
21149;DHT22;10732;51.472;6.466;2023-06-10T05:50:48;26.20;99.90
21149;DHT22;10732;51.472;6.466;2023-06-10T05:53:17;26.90;99.90
21149;DHT22;10732;51.472;6.466;2023-06-10T05:55:43;27.00;99.90
21149;DHT22;10732;51.472;6.466;2023-06-10T05:58:09;26.00;99.90
21149;DHT22;10732;51.472;6.466;2023-06-10T06:00:35;25.90;99.90
21149;DHT22;10732;51.472;6.466;2023-06-10T06:03:01;26.50;99.90
21149;DHT22;10732;51.472;6.466;2023-06-10T06:05:26;26.60;99.90
21149;DHT22;10732;51.472;6.466;2023-06-10T06:07:52;27.10;99.90
21149;DHT22;10732;51.472;6.466;2023-06-10T06:10:18;26.40;99.90
21149;DHT22;10732;51.472;6.466;2023-06-10T06:12:44;26.40;99.90
21149;DHT22;10732;51.472;6.466;2023-06-10T06:15:10;26.50;99.90
21149;DHT22;10732;51.472;6.466;2023-06-10T06:17:36;26.50;99.90
21149;DHT22;10732;51.472;6.466;2023-06-10T06:20:03;27.50;99.90
21149;DHT22;10732;51.472;6.466;2023-06-10T06:22:28;28.60;99.90
21149;DHT22;10732;51.472;6.466;2023-06-10T06:24:54;28.50;99.90
21149;DHT22;10732;51.472;6.466;2023-06-10T06:27:19;28.50;99.90
21149;DHT22;10732;51.472;6.466;2023-06-10T06:29:46;28.20;99.90
21149;DHT22;10732;51.472;6.466;2023-06-10T06:32:11;27.70;99.90
21149;DHT22;10732;51.472;6.466;2023-06-10T06:34:37;27.80;99.90
21149;DHT22;10732;51.472;6.466;2023-06-10T06:37:03;28.80;99.90
21149;DHT22;10732;51.472;6.466;2023-06-10T06:39:28;29.10;99.90
21149;DHT22;10732;51.472;6.466;2023-06-10T06:41:54;30.20;99.90
21149;DHT22;10732;51.472;6.466;2023-06-10T06:44:20;29.40;99.90
21149;DHT22;10732;51.472;6.466;2023-06-10T06:46:45;29.20;99.90
21149;DHT22;10732;51.472;6.466;2023-06-10T06:49:11;29.50;99.90
21149;DHT22;10732;51.472;6.466;2023-06-10T06:51:36;30.20;99.90
21149;DHT22;10732;51.472;6.466;2023-06-10T06:54:02;30.60;99.90
21149;DHT22;10732;51.472;6.466;2023-06-10T06:56:28;30.40;99.90
21149;DHT22;10732;51.472;6.466;2023-06-10T06:58:53;30.80;99.90
21149;DHT22;10732;51.472;6.466;2023-06-10T07:01:19;30.10;99.90
21149;DHT22;10732;51.472;6.466;2023-06-10T07:03:45;30.10;99.90
21149;DHT22;10732;51.472;6.466;2023-06-10T07:06:12;29.20;99.90
21149;DHT22;10732;51.472;6.466;2023-06-10T07:08:38;29.70;99.90
21149;DHT22;10732;51.472;6.466;2023-06-10T07:11:03;30.00;99.90
21149;DHT22;10732;51.472;6.466;2023-06-10T07:13:29;31.80;99.90
21149;DHT22;10732;51.472;6.466;2023-06-10T07:15:55;31.30;99.90
21149;DHT22;10732;51.472;6.466;2023-06-10T07:18:20;31.00;99.90
21149;DHT22;10732;51.472;6.466;2023-06-10T07:20:46;30.80;99.90
21149;DHT22;10732;51.472;6.466;2023-06-10T07:23:11;31.20;99.90
21149;DHT22;10732;51.472;6.466;2023-06-10T07:25:37;31.70;99.90
21149;DHT22;10732;51.472;6.466;2023-06-10T07:28:03;32.90;99.90
21149;DHT22;10732;51.472;6.466;2023-06-10T07:30:28;32.80;99.90
21149;DHT22;10732;51.472;6.466;2023-06-10T07:32:54;32.20;99.90
21149;DHT22;10732;51.472;6.466;2023-06-10T07:35:19;31.70;99.90
21149;DHT22;10732;51.472;6.466;2023-06-10T07:37:45;32.10;99.90
21149;DHT22;10732;51.472;6.466;2023-06-10T07:40:11;33.60;99.90
21149;DHT22;10732;51.472;6.466;2023-06-10T07:42:36;33.50;99.90
21149;DHT22;10732;51.472;6.466;2023-06-10T07:45:03;33.20;99.90
21149;DHT22;10732;51.472;6.466;2023-06-10T07:47:30;32.90;99.90
21149;DHT22;10732;51.472;6.466;2023-06-10T07:49:55;33.60;99.90
21149;DHT22;10732;51.472;6.466;2023-06-10T07:52:21;34.10;99.90
21149;DHT22;10732;51.472;6.466;2023-06-10T07:54:46;33.10;99.90
21149;DHT22;10732;51.472;6.466;2023-06-10T07:57:12;32.30;99.90
21149;DHT22;10732;51.472;6.466;2023-06-10T07:59:38;33.00;99.90
21149;DHT22;10732;51.472;6.466;2023-06-10T08:02:04;32.40;99.90
21149;DHT22;10732;51.472;6.466;2023-06-10T08:04:30;33.80;99.90
21149;DHT22;10732;51.472;6.466;2023-06-10T08:06:56;33.50;99.90
21149;DHT22;10732;51.472;6.466;2023-06-10T08:09:22;34.30;99.90
21149;DHT22;10732;51.472;6.466;2023-06-10T08:11:49;33.40;99.90
21149;DHT22;10732;51.472;6.466;2023-06-10T08:14:15;33.30;99.90
21149;DHT22;10732;51.472;6.466;2023-06-10T08:16:42;34.20;99.90
21149;DHT22;10732;51.472;6.466;2023-06-10T08:19:08;34.30;99.90
21149;DHT22;10732;51.472;6.466;2023-06-10T08:21:35;33.80;99.90
21149;DHT22;10732;51.472;6.466;2023-06-10T08:24:01;33.80;99.90
21149;DHT22;10732;51.472;6.466;2023-06-10T08:26:27;32.90;99.90
21149;DHT22;10732;51.472;6.466;2023-06-10T08:28:52;32.40;99.90
21149;DHT22;10732;51.472;6.466;2023-06-10T08:31:19;34.00;99.90
21149;DHT22;10732;51.472;6.466;2023-06-10T08:33:44;33.30;99.90
21149;DHT22;10732;51.472;6.466;2023-06-10T08:36:10;33.70;99.90
21149;DHT22;10732;51.472;6.466;2023-06-10T08:38:36;34.60;99.90
21149;DHT22;10732;51.472;6.466;2023-06-10T08:41:02;33.50;99.90
21149;DHT22;10732;51.472;6.466;2023-06-10T08:43:40;34.00;99.90
21149;DHT22;10732;51.472;6.466;2023-06-10T08:46:09;34.10;99.90
21149;DHT22;10732;51.472;6.466;2023-06-10T08:48:35;34.20;99.90
21149;DHT22;10732;51.472;6.466;2023-06-10T08:51:04;34.60;99.90
21149;DHT22;10732;51.472;6.466;2023-06-10T08:53:31;34.80;99.90
21149;DHT22;10732;51.472;6.466;2023-06-10T08:56:00;33.90;99.90
21149;DHT22;10732;51.472;6.466;2023-06-10T08:58:28;34.10;99.90
21149;DHT22;10732;51.472;6.466;2023-06-10T09:00:54;35.00;99.90
21149;DHT22;10732;51.472;6.466;2023-06-10T09:03:20;35.50;99.90
21149;DHT22;10732;51.472;6.466;2023-06-10T09:05:47;35.30;99.90
21149;DHT22;10732;51.472;6.466;2023-06-10T09:08:15;33.40;99.90
21149;DHT22;10732;51.472;6.466;2023-06-10T09:10:41;33.90;99.90
21149;DHT22;10732;51.472;6.466;2023-06-10T09:13:06;34.20;99.90
21149;DHT22;10732;51.472;6.466;2023-06-10T09:15:32;33.70;99.90
21149;DHT22;10732;51.472;6.466;2023-06-10T09:17:58;34.60;99.90
21149;DHT22;10732;51.472;6.466;2023-06-10T09:20:24;34.80;99.90
21149;DHT22;10732;51.472;6.466;2023-06-10T09:22:50;35.30;99.90
21149;DHT22;10732;51.472;6.466;2023-06-10T09:25:16;35.00;99.90
21149;DHT22;10732;51.472;6.466;2023-06-10T09:27:49;34.60;99.90
21149;DHT22;10732;51.472;6.466;2023-06-10T09:30:34;34.40;99.90
21149;DHT22;10732;51.472;6.466;2023-06-10T09:33:02;34.30;99.90
21149;DHT22;10732;51.472;6.466;2023-06-10T09:35:29;34.40;99.90
21149;DHT22;10732;51.472;6.466;2023-06-10T09:37:57;33.70;99.90
21149;DHT22;10732;51.472;6.466;2023-06-10T09:40:23;33.60;99.90
21149;DHT22;10732;51.472;6.466;2023-06-10T09:42:57;33.50;99.90
21149;DHT22;10732;51.472;6.466;2023-06-10T09:45:25;35.20;99.90
21149;DHT22;10732;51.472;6.466;2023-06-10T09:47:54;36.20;99.90
21149;DHT22;10732;51.472;6.466;2023-06-10T09:50:21;34.80;99.90
21149;DHT22;10732;51.472;6.466;2023-06-10T09:52:47;34.80;99.90
21149;DHT22;10732;51.472;6.466;2023-06-10T09:55:16;35.90;99.90
21149;DHT22;10732;51.472;6.466;2023-06-10T09:57:41;35.00;99.90
21149;DHT22;10732;51.472;6.466;2023-06-10T10:00:11;35.00;99.90
21149;DHT22;10732;51.472;6.466;2023-06-10T10:02:57;34.60;99.90
21149;DHT22;10732;51.472;6.466;2023-06-10T10:05:23;34.20;99.90
21149;DHT22;10732;51.472;6.466;2023-06-10T10:07:48;34.50;99.90
21149;DHT22;10732;51.472;6.466;2023-06-10T10:10:17;35.20;99.90
21149;DHT22;10732;51.472;6.466;2023-06-10T10:12:43;35.10;99.90
21149;DHT22;10732;51.472;6.466;2023-06-10T10:15:11;34.40;99.90
21149;DHT22;10732;51.472;6.466;2023-06-10T10:17:53;34.50;99.90
21149;DHT22;10732;51.472;6.466;2023-06-10T10:20:26;35.50;99.90
21149;DHT22;10732;51.472;6.466;2023-06-10T10:22:52;34.30;99.90
21149;DHT22;10732;51.472;6.466;2023-06-10T10:25:38;34.70;99.90
21149;DHT22;10732;51.472;6.466;2023-06-10T10:28:11;34.90;99.90
21149;DHT22;10732;51.472;6.466;2023-06-10T10:30:44;34.80;99.90
21149;DHT22;10732;51.472;6.466;2023-06-10T10:33:17;34.90;99.90
21149;DHT22;10732;51.472;6.466;2023-06-10T10:35:44;35.40;99.90
21149;DHT22;10732;51.472;6.466;2023-06-10T10:38:11;36.60;99.90
21149;DHT22;10732;51.472;6.466;2023-06-10T10:40:37;35.50;99.90
21149;DHT22;10732;51.472;6.466;2023-06-10T10:43:04;35.00;99.90
21149;DHT22;10732;51.472;6.466;2023-06-10T10:45:33;34.60;99.90
21149;DHT22;10732;51.472;6.466;2023-06-10T10:48:10;34.00;99.90
21149;DHT22;10732;51.472;6.466;2023-06-10T10:50:37;33.10;99.90
21149;DHT22;10732;51.472;6.466;2023-06-10T10:53:04;33.50;99.90
21149;DHT22;10732;51.472;6.466;2023-06-10T10:55:31;34.20;99.90
21149;DHT22;10732;51.472;6.466;2023-06-10T10:58:06;34.20;99.90
21149;DHT22;10732;51.472;6.466;2023-06-10T11:00:33;34.10;99.90
21149;DHT22;10732;51.472;6.466;2023-06-10T11:07:57;34.20;99.90
21149;DHT22;10732;51.472;6.466;2023-06-10T11:10:31;34.50;99.90
21149;DHT22;10732;51.472;6.466;2023-06-10T11:12:57;34.20;99.90
21149;DHT22;10732;51.472;6.466;2023-06-10T11:15:25;34.00;99.90
21149;DHT22;10732;51.472;6.466;2023-06-10T11:18:13;34.60;99.90
21149;DHT22;10732;51.472;6.466;2023-06-10T11:26:09;33.10;99.90
21149;DHT22;10732;51.472;6.466;2023-06-10T11:28:36;32.90;99.90
21149;DHT22;10732;51.472;6.466;2023-06-10T11:31:02;32.80;99.90
21149;DHT22;10732;51.472;6.466;2023-06-10T11:33:27;32.40;99.90
21149;DHT22;10732;51.472;6.466;2023-06-10T11:35:54;32.20;99.90
21149;DHT22;10732;51.472;6.466;2023-06-10T11:38:20;31.60;99.90
21149;DHT22;10732;51.472;6.466;2023-06-10T11:40:48;31.60;99.90
21149;DHT22;10732;51.472;6.466;2023-06-10T11:43:16;31.50;99.90
21149;DHT22;10732;51.472;6.466;2023-06-10T11:45:42;31.30;99.90
21149;DHT22;10732;51.472;6.466;2023-06-10T11:48:09;31.30;99.90
21149;DHT22;10732;51.472;6.466;2023-06-10T11:50:35;31.40;99.90
21149;DHT22;10732;51.472;6.466;2023-06-10T11:53:01;31.50;99.90
21149;DHT22;10732;51.472;6.466;2023-06-10T11:55:47;31.50;99.90
21149;DHT22;10732;51.472;6.466;2023-06-10T11:58:14;31.20;99.90
21149;DHT22;10732;51.472;6.466;2023-06-10T12:00:56;31.30;99.90
21149;DHT22;10732;51.472;6.466;2023-06-10T12:03:23;31.10;99.90
21149;DHT22;10732;51.472;6.466;2023-06-10T12:06:00;31.20;99.90
21149;DHT22;10732;51.472;6.466;2023-06-10T12:08:26;31.10;99.90
21149;DHT22;10732;51.472;6.466;2023-06-10T12:10:53;31.10;99.90
21149;DHT22;10732;51.472;6.466;2023-06-10T12:13:19;31.00;99.90
21149;DHT22;10732;51.472;6.466;2023-06-10T12:15:45;31.10;99.90
21149;DHT22;10732;51.472;6.466;2023-06-10T12:18:18;31.10;99.90
21149;DHT22;10732;51.472;6.466;2023-06-10T12:20:44;31.00;99.90
21149;DHT22;10732;51.472;6.466;2023-06-10T12:23:10;31.00;99.90
21149;DHT22;10732;51.472;6.466;2023-06-10T12:25:36;31.30;99.90
21149;DHT22;10732;51.472;6.466;2023-06-10T12:28:02;31.00;99.90
21149;DHT22;10732;51.472;6.466;2023-06-10T12:30:28;31.00;99.90
21149;DHT22;10732;51.472;6.466;2023-06-10T12:32:55;30.90;99.90
21149;DHT22;10732;51.472;6.466;2023-06-10T12:35:25;31.10;99.90
21149;DHT22;10732;51.472;6.466;2023-06-10T12:38:02;31.00;99.90
21149;DHT22;10732;51.472;6.466;2023-06-10T12:40:31;31.10;99.90
21149;DHT22;10732;51.472;6.466;2023-06-10T12:42:58;31.30;99.90
21149;DHT22;10732;51.472;6.466;2023-06-10T12:50:39;31.40;99.90
21149;DHT22;10732;51.472;6.466;2023-06-10T12:53:04;31.20;99.90
21149;DHT22;10732;51.472;6.466;2023-06-10T12:55:31;31.20;99.90
21149;DHT22;10732;51.472;6.466;2023-06-10T12:57:57;31.70;99.90
21149;DHT22;10732;51.472;6.466;2023-06-10T13:00:23;31.70;99.90
21149;DHT22;10732;51.472;6.466;2023-06-10T13:02:52;31.70;99.90
21149;DHT22;10732;51.472;6.466;2023-06-10T13:05:19;31.50;99.90
21149;DHT22;10732;51.472;6.466;2023-06-10T13:07:45;31.60;99.90
21149;DHT22;10732;51.472;6.466;2023-06-10T13:10:15;31.10;99.90
21149;DHT22;10732;51.472;6.466;2023-06-10T13:12:44;30.80;99.90
21149;DHT22;10732;51.472;6.466;2023-06-10T13:15:10;30.70;99.90
21149;DHT22;10732;51.472;6.466;2023-06-10T13:17:37;30.70;99.90
21149;DHT22;10732;51.472;6.466;2023-06-10T13:20:07;30.70;99.90
21149;DHT22;10732;51.472;6.466;2023-06-10T13:22:33;30.80;99.90
21149;DHT22;10732;51.472;6.466;2023-06-10T13:25:00;31.00;99.90
21149;DHT22;10732;51.472;6.466;2023-06-10T13:27:26;31.30;99.90
21149;DHT22;10732;51.472;6.466;2023-06-10T13:29:52;31.10;99.90
21149;DHT22;10732;51.472;6.466;2023-06-10T13:32:18;31.20;99.90
21149;DHT22;10732;51.472;6.466;2023-06-10T13:34:43;30.70;99.90
21149;DHT22;10732;51.472;6.466;2023-06-10T13:37:09;31.10;99.90
21149;DHT22;10732;51.472;6.466;2023-06-10T13:39:34;31.20;99.90
21149;DHT22;10732;51.472;6.466;2023-06-10T13:42:00;31.30;99.90
21149;DHT22;10732;51.472;6.466;2023-06-10T13:44:25;31.50;99.90
21149;DHT22;10732;51.472;6.466;2023-06-10T13:46:51;31.60;99.90
21149;DHT22;10732;51.472;6.466;2023-06-10T13:49:16;31.30;99.90
21149;DHT22;10732;51.472;6.466;2023-06-10T13:51:42;31.50;99.90
21149;DHT22;10732;51.472;6.466;2023-06-10T13:54:07;31.30;99.90
21149;DHT22;10732;51.472;6.466;2023-06-10T13:56:33;30.80;99.90
21149;DHT22;10732;51.472;6.466;2023-06-10T13:59:03;30.70;99.90
21149;DHT22;10732;51.472;6.466;2023-06-10T14:01:29;30.80;99.90
21149;DHT22;10732;51.472;6.466;2023-06-10T14:03:54;31.00;99.90
21149;DHT22;10732;51.472;6.466;2023-06-10T14:06:20;31.30;99.90
21149;DHT22;10732;51.472;6.466;2023-06-10T14:08:45;31.50;99.90
21149;DHT22;10732;51.472;6.466;2023-06-10T14:11:11;31.40;99.90
21149;DHT22;10732;51.472;6.466;2023-06-10T14:13:36;31.20;99.90
21149;DHT22;10732;51.472;6.466;2023-06-10T14:16:04;31.20;99.90
21149;DHT22;10732;51.472;6.466;2023-06-10T14:18:30;31.50;99.90
21149;DHT22;10732;51.472;6.466;2023-06-10T14:20:55;31.30;99.90
21149;DHT22;10732;51.472;6.466;2023-06-10T14:23:21;30.80;99.90
21149;DHT22;10732;51.472;6.466;2023-06-10T14:25:46;30.80;99.90
21149;DHT22;10732;51.472;6.466;2023-06-10T14:28:12;30.90;99.90
21149;DHT22;10732;51.472;6.466;2023-06-10T14:30:38;31.20;99.90
21149;DHT22;10732;51.472;6.466;2023-06-10T14:33:03;31.10;99.90
21149;DHT22;10732;51.472;6.466;2023-06-10T14:35:29;31.10;99.90
21149;DHT22;10732;51.472;6.466;2023-06-10T14:37:54;31.30;99.90
21149;DHT22;10732;51.472;6.466;2023-06-10T14:40:20;31.30;99.90
21149;DHT22;10732;51.472;6.466;2023-06-10T14:42:49;31.00;99.90
21149;DHT22;10732;51.472;6.466;2023-06-10T14:45:15;30.60;99.90
21149;DHT22;10732;51.472;6.466;2023-06-10T14:47:40;30.60;99.90
21149;DHT22;10732;51.472;6.466;2023-06-10T14:50:06;30.40;99.90
21149;DHT22;10732;51.472;6.466;2023-06-10T14:52:32;30.40;99.90
21149;DHT22;10732;51.472;6.466;2023-06-10T14:54:58;30.40;99.90
21149;DHT22;10732;51.472;6.466;2023-06-10T14:57:23;30.30;99.90
21149;DHT22;10732;51.472;6.466;2023-06-10T14:59:49;30.60;99.90
21149;DHT22;10732;51.472;6.466;2023-06-10T15:02:14;30.70;99.90
21149;DHT22;10732;51.472;6.466;2023-06-10T15:04:40;30.70;99.90
21149;DHT22;10732;51.472;6.466;2023-06-10T15:07:05;30.80;99.90
21149;DHT22;10732;51.472;6.466;2023-06-10T15:09:31;30.70;99.90
21149;DHT22;10732;51.472;6.466;2023-06-10T15:11:57;30.60;99.90
21149;DHT22;10732;51.472;6.466;2023-06-10T15:14:24;30.70;99.90
21149;DHT22;10732;51.472;6.466;2023-06-10T15:16:51;30.90;99.90
21149;DHT22;10732;51.472;6.466;2023-06-10T15:19:16;30.80;99.90
21149;DHT22;10732;51.472;6.466;2023-06-10T15:21:42;30.60;99.90
21149;DHT22;10732;51.472;6.466;2023-06-10T15:24:07;30.30;99.90
21149;DHT22;10732;51.472;6.466;2023-06-10T15:26:33;30.10;99.90
21149;DHT22;10732;51.472;6.466;2023-06-10T15:28:59;30.00;99.90
21149;DHT22;10732;51.472;6.466;2023-06-10T15:31:29;29.70;99.90
21149;DHT22;10732;51.472;6.466;2023-06-10T15:33:55;29.50;99.90
21149;DHT22;10732;51.472;6.466;2023-06-10T15:36:21;29.50;99.90
21149;DHT22;10732;51.472;6.466;2023-06-10T15:38:46;29.60;99.90
21149;DHT22;10732;51.472;6.466;2023-06-10T15:41:13;29.70;99.90
21149;DHT22;10732;51.472;6.466;2023-06-10T15:43:38;29.80;99.90